sensor_id;sensor_type;location;lat;lon;timestamp;temperature;humidity
30385;DHT22;17181;51.002;4.096;2023-07-31T00:00:58;18.00;99.90
30385;DHT22;17181;51.002;4.096;2023-07-31T00:03:25;18.10;99.90
30385;DHT22;17181;51.002;4.096;2023-07-31T00:29:54;18.10;99.90
30385;DHT22;17181;51.002;4.096;2023-07-31T00:42:13;18.20;99.90
30385;DHT22;17181;51.002;4.096;2023-07-31T00:48:06;18.20;99.90
30385;DHT22;17181;51.002;4.096;2023-07-31T02:17:55;18.60;99.90
30385;DHT22;17181;51.002;4.096;2023-07-31T02:20:24;18.60;99.90
30385;DHT22;17181;51.002;4.096;2023-07-31T02:22:51;18.60;99.90
30385;DHT22;17181;51.002;4.096;2023-07-31T02:31:06;18.70;99.90
30385;DHT22;17181;51.002;4.096;2023-07-31T02:33:34;18.60;99.90
30385;DHT22;17181;51.002;4.096;2023-07-31T02:36:13;18.70;99.90
30385;DHT22;17181;51.002;4.096;2023-07-31T02:38:41;18.60;99.90
30385;DHT22;17181;51.002;4.096;2023-07-31T02:53:05;18.60;99.90
30385;DHT22;17181;51.002;4.096;2023-07-31T02:59:21;18.60;99.90
30385;DHT22;17181;51.002;4.096;2023-07-31T03:11:29;18.70;99.90
30385;DHT22;17181;51.002;4.096;2023-07-31T03:14:04;18.70;99.90
30385;DHT22;17181;51.002;4.096;2023-07-31T03:16:33;18.80;99.90
30385;DHT22;17181;51.002;4.096;2023-07-31T03:18:59;18.80;99.90
30385;DHT22;17181;51.002;4.096;2023-07-31T03:21:27;18.80;99.90
30385;DHT22;17181;51.002;4.096;2023-07-31T03:23:56;18.70;99.90
30385;DHT22;17181;51.002;4.096;2023-07-31T03:26:23;18.80;99.90
30385;DHT22;17181;51.002;4.096;2023-07-31T03:28:50;18.80;99.90
30385;DHT22;17181;51.002;4.096;2023-07-31T03:31:16;18.80;99.90
30385;DHT22;17181;51.002;4.096;2023-07-31T03:33:47;18.60;99.90
30385;DHT22;17181;51.002;4.096;2023-07-31T03:55:46;17.90;99.90
30385;DHT22;17181;51.002;4.096;2023-07-31T04:37:38;17.60;99.90
30385;DHT22;17181;51.002;4.096;2023-07-31T04:40:05;17.50;99.90
30385;DHT22;17181;51.002;4.096;2023-07-31T04:42:32;17.50;99.90
30385;DHT22;17181;51.002;4.096;2023-07-31T04:45:00;17.60;99.90
30385;DHT22;17181;51.002;4.096;2023-07-31T04:47:29;17.60;99.90
30385;DHT22;17181;51.002;4.096;2023-07-31T04:49:54;17.60;99.90
30385;DHT22;17181;51.002;4.096;2023-07-31T04:52:20;17.60;99.90
30385;DHT22;17181;51.002;4.096;2023-07-31T04:54:46;17.70;99.90
30385;DHT22;17181;51.002;4.096;2023-07-31T04:57:12;17.60;99.90
30385;DHT22;17181;51.002;4.096;2023-07-31T04:59:38;17.60;99.90
30385;DHT22;17181;51.002;4.096;2023-07-31T05:02:04;17.60;99.90
30385;DHT22;17181;51.002;4.096;2023-07-31T05:04:30;17.60;99.90
30385;DHT22;17181;51.002;4.096;2023-07-31T05:06:59;17.60;99.90
30385;DHT22;17181;51.002;4.096;2023-07-31T05:09:25;17.60;99.90
30385;DHT22;17181;51.002;4.096;2023-07-31T05:11:51;17.50;99.90
30385;DHT22;17181;51.002;4.096;2023-07-31T05:14:17;17.50;99.90
30385;DHT22;17181;51.002;4.096;2023-07-31T05:16:43;17.50;99.90
30385;DHT22;17181;51.002;4.096;2023-07-31T05:19:09;17.50;99.90
30385;DHT22;17181;51.002;4.096;2023-07-31T05:21:34;17.50;99.90
30385;DHT22;17181;51.002;4.096;2023-07-31T05:24:00;17.50;99.90
30385;DHT22;17181;51.002;4.096;2023-07-31T05:26:26;17.50;99.90
30385;DHT22;17181;51.002;4.096;2023-07-31T05:28:52;17.40;99.90
30385;DHT22;17181;51.002;4.096;2023-07-31T05:31:18;17.50;99.90
30385;DHT22;17181;51.002;4.096;2023-07-31T05:33:44;17.40;99.90
30385;DHT22;17181;51.002;4.096;2023-07-31T05:36:10;17.40;99.90
30385;DHT22;17181;51.002;4.096;2023-07-31T05:38:36;17.40;99.90
30385;DHT22;17181;51.002;4.096;2023-07-31T05:41:04;17.40;99.90
30385;DHT22;17181;51.002;4.096;2023-07-31T05:43:29;17.50;99.90
30385;DHT22;17181;51.002;4.096;2023-07-31T05:45:55;17.50;99.90
30385;DHT22;17181;51.002;4.096;2023-07-31T05:48:21;17.50;99.90
30385;DHT22;17181;51.002;4.096;2023-07-31T05:50:47;17.50;99.90
30385;DHT22;17181;51.002;4.096;2023-07-31T05:53:13;17.50;99.90
30385;DHT22;17181;51.002;4.096;2023-07-31T05:55:38;17.40;99.90
30385;DHT22;17181;51.002;4.096;2023-07-31T05:58:07;17.50;99.90
30385;DHT22;17181;51.002;4.096;2023-07-31T06:00:33;17.60;99.90
30385;DHT22;17181;51.002;4.096;2023-07-31T06:02:59;17.60;99.90
30385;DHT22;17181;51.002;4.096;2023-07-31T06:05:25;17.60;99.90
30385;DHT22;17181;51.002;4.096;2023-07-31T06:07:51;17.60;99.90
30385;DHT22;17181;51.002;4.096;2023-07-31T06:10:17;17.70;99.90
30385;DHT22;17181;51.002;4.096;2023-07-31T06:12:44;17.70;99.90
30385;DHT22;17181;51.002;4.096;2023-07-31T06:15:10;17.70;99.90
30385;DHT22;17181;51.002;4.096;2023-07-31T06:17:39;17.70;99.90
30385;DHT22;17181;51.002;4.096;2023-07-31T06:20:08;17.80;99.90
30385;DHT22;17181;51.002;4.096;2023-07-31T06:22:34;17.80;99.90
30385;DHT22;17181;51.002;4.096;2023-07-31T06:25:00;17.70;99.90
30385;DHT22;17181;51.002;4.096;2023-07-31T06:27:25;17.80;99.90
30385;DHT22;17181;51.002;4.096;2023-07-31T06:29:54;17.70;99.90
30385;DHT22;17181;51.002;4.096;2023-07-31T06:32:20;17.70;99.90
30385;DHT22;17181;51.002;4.096;2023-07-31T06:34:46;17.70;99.90
30385;DHT22;17181;51.002;4.096;2023-07-31T06:37:13;17.70;99.90
30385;DHT22;17181;51.002;4.096;2023-07-31T06:39:39;17.70;99.90
30385;DHT22;17181;51.002;4.096;2023-07-31T06:42:06;17.70;99.90
30385;DHT22;17181;51.002;4.096;2023-07-31T06:44:37;17.70;99.90
30385;DHT22;17181;51.002;4.096;2023-07-31T06:47:08;17.90;99.90
30385;DHT22;17181;51.002;4.096;2023-07-31T06:49:34;17.90;99.90
30385;DHT22;17181;51.002;4.096;2023-07-31T06:52:00;17.90;99.90
30385;DHT22;17181;51.002;4.096;2023-07-31T06:54:26;18.10;99.90
30385;DHT22;17181;51.002;4.096;2023-07-31T06:56:52;18.20;99.90
30385;DHT22;17181;51.002;4.096;2023-07-31T06:59:21;18.30;99.90
30385;DHT22;17181;51.002;4.096;2023-07-31T07:01:47;18.20;99.90
30385;DHT22;17181;51.002;4.096;2023-07-31T07:04:13;18.40;99.90
30385;DHT22;17181;51.002;4.096;2023-07-31T07:06:39;18.50;99.90
30385;DHT22;17181;51.002;4.096;2023-07-31T07:09:05;18.50;99.90
30385;DHT22;17181;51.002;4.096;2023-07-31T07:11:31;18.50;99.90
30385;DHT22;17181;51.002;4.096;2023-07-31T07:13:58;18.50;99.90
30385;DHT22;17181;51.002;4.096;2023-07-31T07:16:25;18.50;99.90
30385;DHT22;17181;51.002;4.096;2023-07-31T07:18:51;18.40;99.90
30385;DHT22;17181;51.002;4.096;2023-07-31T07:21:19;18.40;99.90
30385;DHT22;17181;51.002;4.096;2023-07-31T07:23:49;18.40;99.90
30385;DHT22;17181;51.002;4.096;2023-07-31T07:26:20;18.50;99.90
30385;DHT22;17181;51.002;4.096;2023-07-31T07:28:49;18.30;99.90
30385;DHT22;17181;51.002;4.096;2023-07-31T07:31:18;18.40;99.90
30385;DHT22;17181;51.002;4.096;2023-07-31T07:33:47;18.50;99.90
30385;DHT22;17181;51.002;4.096;2023-07-31T07:36:13;18.50;99.90
30385;DHT22;17181;51.002;4.096;2023-07-31T07:38:39;18.50;99.90
30385;DHT22;17181;51.002;4.096;2023-07-31T07:41:06;18.40;99.90
30385;DHT22;17181;51.002;4.096;2023-07-31T07:43:33;18.60;99.90
30385;DHT22;17181;51.002;4.096;2023-07-31T07:45:58;18.70;99.90
30385;DHT22;17181;51.002;4.096;2023-07-31T07:48:25;18.70;99.90
30385;DHT22;17181;51.002;4.096;2023-07-31T07:50:53;18.80;99.90
30385;DHT22;17181;51.002;4.096;2023-07-31T07:53:25;18.90;99.90
30385;DHT22;17181;51.002;4.096;2023-07-31T07:55:52;19.00;99.90
30385;DHT22;17181;51.002;4.096;2023-07-31T07:58:18;19.00;99.90
30385;DHT22;17181;51.002;4.096;2023-07-31T08:01:05;19.10;99.90
30385;DHT22;17181;51.002;4.096;2023-07-31T08:03:40;19.20;99.90
30385;DHT22;17181;51.002;4.096;2023-07-31T08:06:09;19.30;99.90
30385;DHT22;17181;51.002;4.096;2023-07-31T08:08:37;19.30;99.90
30385;DHT22;17181;51.002;4.096;2023-07-31T08:11:11;19.10;99.90
30385;DHT22;17181;51.002;4.096;2023-07-31T08:16:34;19.00;99.90
30385;DHT22;17181;51.002;4.096;2023-07-31T08:19:03;19.00;99.90
30385;DHT22;17181;51.002;4.096;2023-07-31T08:21:28;19.00;99.90
30385;DHT22;17181;51.002;4.096;2023-07-31T08:23:55;19.00;99.90
30385;DHT22;17181;51.002;4.096;2023-07-31T08:26:21;19.10;99.90
30385;DHT22;17181;51.002;4.096;2023-07-31T08:28:46;19.20;99.90
30385;DHT22;17181;51.002;4.096;2023-07-31T08:31:13;19.30;99.90
30385;DHT22;17181;51.002;4.096;2023-07-31T13:17:32;19.40;99.90
30385;DHT22;17181;51.002;4.096;2023-07-31T13:19:59;19.30;99.90
30385;DHT22;17181;51.002;4.096;2023-07-31T13:22:26;19.30;99.90
30385;DHT22;17181;51.002;4.096;2023-07-31T13:24:53;19.20;99.90
30385;DHT22;17181;51.002;4.096;2023-07-31T13:27:18;19.20;99.90
30385;DHT22;17181;51.002;4.096;2023-07-31T13:29:51;19.10;99.90
30385;DHT22;17181;51.002;4.096;2023-07-31T13:32:18;19.20;99.90
30385;DHT22;17181;51.002;4.096;2023-07-31T13:34:46;19.10;99.90
30385;DHT22;17181;51.002;4.096;2023-07-31T13:37:13;19.10;99.90
30385;DHT22;17181;51.002;4.096;2023-07-31T13:39:41;19.20;99.90
30385;DHT22;17181;51.002;4.096;2023-07-31T13:42:08;19.10;99.90
30385;DHT22;17181;51.002;4.096;2023-07-31T13:44:40;19.00;99.90
30385;DHT22;17181;51.002;4.096;2023-07-31T13:47:07;19.00;99.90
30385;DHT22;17181;51.002;4.096;2023-07-31T13:49:34;18.90;99.90
30385;DHT22;17181;51.002;4.096;2023-07-31T13:52:00;19.00;99.90
30385;DHT22;17181;51.002;4.096;2023-07-31T13:54:27;18.90;99.90
30385;DHT22;17181;51.002;4.096;2023-07-31T13:56:53;18.90;99.90
30385;DHT22;17181;51.002;4.096;2023-07-31T13:59:20;18.80;99.90
30385;DHT22;17181;51.002;4.096;2023-07-31T14:01:46;18.80;99.90
30385;DHT22;17181;51.002;4.096;2023-07-31T14:04:13;18.80;99.90
30385;DHT22;17181;51.002;4.096;2023-07-31T14:06:38;18.80;99.90
30385;DHT22;17181;51.002;4.096;2023-07-31T14:09:05;18.80;99.90
30385;DHT22;17181;51.002;4.096;2023-07-31T14:11:31;18.80;99.90
30385;DHT22;17181;51.002;4.096;2023-07-31T14:13:57;18.80;99.90
30385;DHT22;17181;51.002;4.096;2023-07-31T14:16:23;18.80;99.90
30385;DHT22;17181;51.002;4.096;2023-07-31T14:18:49;18.80;99.90
30385;DHT22;17181;51.002;4.096;2023-07-31T14:21:15;18.80;99.90
30385;DHT22;17181;51.002;4.096;2023-07-31T14:23:42;18.80;99.90
30385;DHT22;17181;51.002;4.096;2023-07-31T14:26:08;18.70;99.90
30385;DHT22;17181;51.002;4.096;2023-07-31T14:28:34;18.80;99.90
30385;DHT22;17181;51.002;4.096;2023-07-31T14:31:00;18.80;99.90
30385;DHT22;17181;51.002;4.096;2023-07-31T14:33:25;18.80;99.90
30385;DHT22;17181;51.002;4.096;2023-07-31T14:35:52;18.80;99.90
30385;DHT22;17181;51.002;4.096;2023-07-31T14:38:18;18.80;99.90
30385;DHT22;17181;51.002;4.096;2023-07-31T14:40:43;18.80;99.90
30385;DHT22;17181;51.002;4.096;2023-07-31T14:43:09;18.80;99.90
30385;DHT22;17181;51.002;4.096;2023-07-31T14:45:35;18.70;99.90
30385;DHT22;17181;51.002;4.096;2023-07-31T14:48:01;18.80;99.90
30385;DHT22;17181;51.002;4.096;2023-07-31T14:50:27;18.80;99.90
30385;DHT22;17181;51.002;4.096;2023-07-31T14:52:53;18.80;99.90
30385;DHT22;17181;51.002;4.096;2023-07-31T14:55:20;18.80;99.90
30385;DHT22;17181;51.002;4.096;2023-07-31T14:57:46;18.80;99.90
30385;DHT22;17181;51.002;4.096;2023-07-31T15:00:12;18.90;99.90
30385;DHT22;17181;51.002;4.096;2023-07-31T15:02:38;18.80;99.90
30385;DHT22;17181;51.002;4.096;2023-07-31T15:05:05;18.80;99.90
30385;DHT22;17181;51.002;4.096;2023-07-31T15:07:32;18.80;99.90
30385;DHT22;17181;51.002;4.096;2023-07-31T15:09:58;18.80;99.90
30385;DHT22;17181;51.002;4.096;2023-07-31T15:12:24;18.80;99.90
30385;DHT22;17181;51.002;4.096;2023-07-31T15:14:51;18.80;99.90
30385;DHT22;17181;51.002;4.096;2023-07-31T15:17:18;18.80;99.90
30385;DHT22;17181;51.002;4.096;2023-07-31T15:19:44;18.80;99.90
30385;DHT22;17181;51.002;4.096;2023-07-31T15:22:11;19.00;99.90
30385;DHT22;17181;51.002;4.096;2023-07-31T15:24:36;18.90;99.90
30385;DHT22;17181;51.002;4.096;2023-07-31T15:27:02;18.80;99.90
30385;DHT22;17181;51.002;4.096;2023-07-31T15:29:29;18.80;99.90
30385;DHT22;17181;51.002;4.096;2023-07-31T15:31:55;18.80;99.90
30385;DHT22;17181;51.002;4.096;2023-07-31T15:34:21;18.80;99.90
30385;DHT22;17181;51.002;4.096;2023-07-31T15:36:47;18.90;99.90
30385;DHT22;17181;51.002;4.096;2023-07-31T15:39:14;18.90;99.90
30385;DHT22;17181;51.002;4.096;2023-07-31T15:41:40;18.90;99.90
30385;DHT22;17181;51.002;4.096;2023-07-31T15:44:07;18.80;99.90
30385;DHT22;17181;51.002;4.096;2023-07-31T15:46:33;18.90;99.90
30385;DHT22;17181;51.002;4.096;2023-07-31T15:49:00;18.90;99.90
30385;DHT22;17181;51.002;4.096;2023-07-31T15:51:26;18.80;99.90
30385;DHT22;17181;51.002;4.096;2023-07-31T15:53:53;18.80;99.90
30385;DHT22;17181;51.002;4.096;2023-07-31T15:56:19;18.80;99.90
30385;DHT22;17181;51.002;4.096;2023-07-31T15:58:45;18.90;99.90
30385;DHT22;17181;51.002;4.096;2023-07-31T16:01:11;18.90;99.90
30385;DHT22;17181;51.002;4.096;2023-07-31T16:03:38;18.80;99.90
30385;DHT22;17181;51.002;4.096;2023-07-31T16:06:04;18.80;99.90
30385;DHT22;17181;51.002;4.096;2023-07-31T16:08:29;18.90;99.90
30385;DHT22;17181;51.002;4.096;2023-07-31T16:10:55;18.90;99.90
30385;DHT22;17181;51.002;4.096;2023-07-31T16:13:22;18.90;99.90
30385;DHT22;17181;51.002;4.096;2023-07-31T16:15:48;18.90;99.90
30385;DHT22;17181;51.002;4.096;2023-07-31T16:18:14;18.90;99.90
30385;DHT22;17181;51.002;4.096;2023-07-31T16:20:40;18.90;99.90
30385;DHT22;17181;51.002;4.096;2023-07-31T16:23:06;18.90;99.90
30385;DHT22;17181;51.002;4.096;2023-07-31T16:25:33;18.90;99.90
30385;DHT22;17181;51.002;4.096;2023-07-31T16:27:59;18.90;99.90
30385;DHT22;17181;51.002;4.096;2023-07-31T16:30:26;18.90;99.90
30385;DHT22;17181;51.002;4.096;2023-07-31T16:32:52;18.90;99.90
30385;DHT22;17181;51.002;4.096;2023-07-31T16:35:19;18.90;99.90
30385;DHT22;17181;51.002;4.096;2023-07-31T16:37:45;18.90;99.90
30385;DHT22;17181;51.002;4.096;2023-07-31T16:40:12;18.80;99.90
30385;DHT22;17181;51.002;4.096;2023-07-31T16:42:39;18.80;99.90
30385;DHT22;17181;51.002;4.096;2023-07-31T16:45:06;18.90;99.90
30385;DHT22;17181;51.002;4.096;2023-07-31T16:47:32;18.90;99.90
30385;DHT22;17181;51.002;4.096;2023-07-31T16:49:58;18.90;99.90
30385;DHT22;17181;51.002;4.096;2023-07-31T16:52:24;18.90;99.90
30385;DHT22;17181;51.002;4.096;2023-07-31T16:54:50;18.90;99.90
30385;DHT22;17181;51.002;4.096;2023-07-31T16:57:17;18.90;99.90
30385;DHT22;17181;51.002;4.096;2023-07-31T16:59:43;18.90;99.90
30385;DHT22;17181;51.002;4.096;2023-07-31T17:02:09;18.90;99.90
30385;DHT22;17181;51.002;4.096;2023-07-31T17:04:39;18.90;99.90
30385;DHT22;17181;51.002;4.096;2023-07-31T17:07:05;18.90;99.90
30385;DHT22;17181;51.002;4.096;2023-07-31T17:09:33;19.00;99.90
30385;DHT22;17181;51.002;4.096;2023-07-31T17:12:03;19.00;99.90
30385;DHT22;17181;51.002;4.096;2023-07-31T17:14:29;19.00;99.90
30385;DHT22;17181;51.002;4.096;2023-07-31T17:16:57;19.00;99.90
30385;DHT22;17181;51.002;4.096;2023-07-31T17:19:23;19.00;99.90
30385;DHT22;17181;51.002;4.096;2023-07-31T17:21:50;19.00;99.90
30385;DHT22;17181;51.002;4.096;2023-07-31T17:24:16;19.00;99.90
30385;DHT22;17181;51.002;4.096;2023-07-31T17:26:42;19.00;99.90
30385;DHT22;17181;51.002;4.096;2023-07-31T17:29:13;19.00;99.90
30385;DHT22;17181;51.002;4.096;2023-07-31T17:31:42;18.90;99.90
30385;DHT22;17181;51.002;4.096;2023-07-31T17:34:08;18.90;99.90
30385;DHT22;17181;51.002;4.096;2023-07-31T17:36:36;19.00;99.90
30385;DHT22;17181;51.002;4.096;2023-07-31T17:39:30;19.00;99.90
30385;DHT22;17181;51.002;4.096;2023-07-31T17:41:59;19.00;99.90
30385;DHT22;17181;51.002;4.096;2023-07-31T17:44:28;19.00;99.90
30385;DHT22;17181;51.002;4.096;2023-07-31T17:46:54;18.90;99.90
30385;DHT22;17181;51.002;4.096;2023-07-31T17:49:20;19.00;99.90
30385;DHT22;17181;51.002;4.096;2023-07-31T17:51:47;18.90;99.90
30385;DHT22;17181;51.002;4.096;2023-07-31T17:54:13;19.00;99.90
30385;DHT22;17181;51.002;4.096;2023-07-31T17:56:39;19.00;99.90
30385;DHT22;17181;51.002;4.096;2023-07-31T17:59:07;19.00;99.90
30385;DHT22;17181;51.002;4.096;2023-07-31T18:01:33;19.00;99.90
30385;DHT22;17181;51.002;4.096;2023-07-31T18:03:59;19.00;99.90
30385;DHT22;17181;51.002;4.096;2023-07-31T18:06:25;19.00;99.90
30385;DHT22;17181;51.002;4.096;2023-07-31T18:08:50;19.00;99.90
30385;DHT22;17181;51.002;4.096;2023-07-31T18:11:16;19.00;99.90
30385;DHT22;17181;51.002;4.096;2023-07-31T18:13:42;19.00;99.90
30385;DHT22;17181;51.002;4.096;2023-07-31T18:16:08;19.00;99.90
30385;DHT22;17181;51.002;4.096;2023-07-31T18:18:34;19.00;99.90
30385;DHT22;17181;51.002;4.096;2023-07-31T18:21:00;19.00;99.90
30385;DHT22;17181;51.002;4.096;2023-07-31T18:23:29;19.00;99.90
30385;DHT22;17181;51.002;4.096;2023-07-31T18:25:55;19.10;99.90
30385;DHT22;17181;51.002;4.096;2023-07-31T18:28:20;19.10;99.90
30385;DHT22;17181;51.002;4.096;2023-07-31T18:30:49;19.10;99.90
30385;DHT22;17181;51.002;4.096;2023-07-31T18:33:15;19.10;99.90
30385;DHT22;17181;51.002;4.096;2023-07-31T18:35:41;19.10;99.90
30385;DHT22;17181;51.002;4.096;2023-07-31T18:38:06;19.10;99.90
30385;DHT22;17181;51.002;4.096;2023-07-31T18:40:33;19.20;99.90
30385;DHT22;17181;51.002;4.096;2023-07-31T18:42:59;19.20;99.90
30385;DHT22;17181;51.002;4.096;2023-07-31T18:45:25;19.20;99.90
30385;DHT22;17181;51.002;4.096;2023-07-31T18:47:51;19.20;99.90
30385;DHT22;17181;51.002;4.096;2023-07-31T18:50:16;19.20;99.90
30385;DHT22;17181;51.002;4.096;2023-07-31T18:52:42;19.30;99.90
30385;DHT22;17181;51.002;4.096;2023-07-31T18:55:08;19.30;99.90
30385;DHT22;17181;51.002;4.096;2023-07-31T18:57:34;19.20;99.90
30385;DHT22;17181;51.002;4.096;2023-07-31T19:00:00;19.20;99.90
30385;DHT22;17181;51.002;4.096;2023-07-31T19:02:26;19.20;99.90
30385;DHT22;17181;51.002;4.096;2023-07-31T19:04:51;19.20;99.90
30385;DHT22;17181;51.002;4.096;2023-07-31T19:07:18;19.10;99.90
30385;DHT22;17181;51.002;4.096;2023-07-31T19:09:44;19.20;99.90
30385;DHT22;17181;51.002;4.096;2023-07-31T19:12:10;19.10;99.90
30385;DHT22;17181;51.002;4.096;2023-07-31T19:14:37;19.00;99.90
30385;DHT22;17181;51.002;4.096;2023-07-31T19:17:03;19.00;99.90
30385;DHT22;17181;51.002;4.096;2023-07-31T19:19:29;19.10;99.90
30385;DHT22;17181;51.002;4.096;2023-07-31T19:21:55;19.10;99.90
30385;DHT22;17181;51.002;4.096;2023-07-31T19:24:21;19.10;99.90
30385;DHT22;17181;51.002;4.096;2023-07-31T19:26:48;19.10;99.90
30385;DHT22;17181;51.002;4.096;2023-07-31T19:29:14;19.00;99.90
30385;DHT22;17181;51.002;4.096;2023-07-31T19:31:40;19.00;99.90
30385;DHT22;17181;51.002;4.096;2023-07-31T19:34:08;19.00;99.90
30385;DHT22;17181;51.002;4.096;2023-07-31T19:36:34;19.00;99.90
30385;DHT22;17181;51.002;4.096;2023-07-31T19:39:00;19.00;99.90
30385;DHT22;17181;51.002;4.096;2023-07-31T19:41:30;19.00;99.90
30385;DHT22;17181;51.002;4.096;2023-07-31T19:43:56;19.00;99.90
30385;DHT22;17181;51.002;4.096;2023-07-31T19:46:22;19.00;99.90
30385;DHT22;17181;51.002;4.096;2023-07-31T19:48:47;19.00;99.90
30385;DHT22;17181;51.002;4.096;2023-07-31T19:51:13;19.00;99.90
30385;DHT22;17181;51.002;4.096;2023-07-31T19:53:39;18.90;99.90
30385;DHT22;17181;51.002;4.096;2023-07-31T19:56:05;18.90;99.90
30385;DHT22;17181;51.002;4.096;2023-07-31T19:58:31;19.00;99.90
30385;DHT22;17181;51.002;4.096;2023-07-31T20:00:57;19.00;99.90
30385;DHT22;17181;51.002;4.096;2023-07-31T20:03:23;19.00;99.90
30385;DHT22;17181;51.002;4.096;2023-07-31T20:05:50;19.00;99.90
30385;DHT22;17181;51.002;4.096;2023-07-31T20:08:17;19.00;99.90
30385;DHT22;17181;51.002;4.096;2023-07-31T20:10:43;19.00;99.90
30385;DHT22;17181;51.002;4.096;2023-07-31T20:13:10;19.00;99.90
30385;DHT22;17181;51.002;4.096;2023-07-31T20:15:36;19.00;99.90
30385;DHT22;17181;51.002;4.096;2023-07-31T20:18:02;18.90;99.90
30385;DHT22;17181;51.002;4.096;2023-07-31T20:20:28;18.90;99.90
30385;DHT22;17181;51.002;4.096;2023-07-31T20:22:55;18.90;99.90
30385;DHT22;17181;51.002;4.096;2023-07-31T20:25:21;18.90;99.90
30385;DHT22;17181;51.002;4.096;2023-07-31T20:27:46;18.90;99.90
30385;DHT22;17181;51.002;4.096;2023-07-31T20:30:12;18.90;99.90
30385;DHT22;17181;51.002;4.096;2023-07-31T20:32:38;18.90;99.90
30385;DHT22;17181;51.002;4.096;2023-07-31T20:35:04;18.90;99.90
30385;DHT22;17181;51.002;4.096;2023-07-31T20:37:30;19.00;99.90
30385;DHT22;17181;51.002;4.096;2023-07-31T20:39:58;19.00;99.90
30385;DHT22;17181;51.002;4.096;2023-07-31T20:42:27;19.00;99.90
30385;DHT22;17181;51.002;4.096;2023-07-31T20:44:54;19.00;99.90
30385;DHT22;17181;51.002;4.096;2023-07-31T20:47:20;19.00;99.90
30385;DHT22;17181;51.002;4.096;2023-07-31T20:49:46;19.00;99.90
30385;DHT22;17181;51.002;4.096;2023-07-31T20:52:11;19.00;99.90
30385;DHT22;17181;51.002;4.096;2023-07-31T20:54:37;19.00;99.90
30385;DHT22;17181;51.002;4.096;2023-07-31T20:57:05;19.00;99.90
30385;DHT22;17181;51.002;4.096;2023-07-31T20:59:31;19.00;99.90
30385;DHT22;17181;51.002;4.096;2023-07-31T21:01:57;19.00;99.90
30385;DHT22;17181;51.002;4.096;2023-07-31T21:04:22;18.90;99.90
30385;DHT22;17181;51.002;4.096;2023-07-31T21:06:48;18.90;99.90
30385;DHT22;17181;51.002;4.096;2023-07-31T21:09:14;18.90;99.90
30385;DHT22;17181;51.002;4.096;2023-07-31T21:11:40;18.90;99.90
30385;DHT22;17181;51.002;4.096;2023-07-31T21:14:06;18.90;99.90
30385;DHT22;17181;51.002;4.096;2023-07-31T21:16:32;18.90;99.90
30385;DHT22;17181;51.002;4.096;2023-07-31T21:18:57;18.80;99.90
30385;DHT22;17181;51.002;4.096;2023-07-31T21:21:23;18.80;99.90
30385;DHT22;17181;51.002;4.096;2023-07-31T21:23:49;18.80;99.90
30385;DHT22;17181;51.002;4.096;2023-07-31T21:26:15;18.80;99.90
30385;DHT22;17181;51.002;4.096;2023-07-31T21:28:41;18.70;99.90
30385;DHT22;17181;51.002;4.096;2023-07-31T21:31:14;18.70;99.90
30385;DHT22;17181;51.002;4.096;2023-07-31T21:33:43;18.70;99.90
30385;DHT22;17181;51.002;4.096;2023-07-31T21:36:09;18.70;99.90
30385;DHT22;17181;51.002;4.096;2023-07-31T21:38:35;18.70;99.90
30385;DHT22;17181;51.002;4.096;2023-07-31T21:41:01;18.60;99.90
30385;DHT22;17181;51.002;4.096;2023-07-31T21:43:28;18.60;99.90
30385;DHT22;17181;51.002;4.096;2023-07-31T21:45:54;18.70;99.90
30385;DHT22;17181;51.002;4.096;2023-07-31T21:48:20;18.70;99.90
30385;DHT22;17181;51.002;4.096;2023-07-31T21:50:46;18.70;99.90
30385;DHT22;17181;51.002;4.096;2023-07-31T21:53:12;18.70;99.90
30385;DHT22;17181;51.002;4.096;2023-07-31T21:55:37;18.70;99.90
30385;DHT22;17181;51.002;4.096;2023-07-31T21:58:03;18.70;99.90
30385;DHT22;17181;51.002;4.096;2023-07-31T22:00:29;18.70;99.90
30385;DHT22;17181;51.002;4.096;2023-07-31T22:02:55;18.70;99.90
30385;DHT22;17181;51.002;4.096;2023-07-31T22:05:21;18.70;99.90
30385;DHT22;17181;51.002;4.096;2023-07-31T22:07:46;18.70;99.90
30385;DHT22;17181;51.002;4.096;2023-07-31T22:10:12;18.70;99.90
30385;DHT22;17181;51.002;4.096;2023-07-31T22:12:38;18.60;99.90
30385;DHT22;17181;51.002;4.096;2023-07-31T22:15:04;18.60;99.90
30385;DHT22;17181;51.002;4.096;2023-07-31T22:17:30;18.60;99.90
30385;DHT22;17181;51.002;4.096;2023-07-31T22:19:57;18.60;99.90
30385;DHT22;17181;51.002;4.096;2023-07-31T22:22:22;18.60;99.90
30385;DHT22;17181;51.002;4.096;2023-07-31T22:24:48;18.60;99.90
30385;DHT22;17181;51.002;4.096;2023-07-31T22:27:15;18.50;99.90
30385;DHT22;17181;51.002;4.096;2023-07-31T22:29:41;18.60;99.90
30385;DHT22;17181;51.002;4.096;2023-07-31T22:32:07;18.50;99.90
30385;DHT22;17181;51.002;4.096;2023-07-31T22:34:33;18.50;99.90
30385;DHT22;17181;51.002;4.096;2023-07-31T22:36:59;18.50;99.90
30385;DHT22;17181;51.002;4.096;2023-07-31T22:39:25;18.40;99.90
30385;DHT22;17181;51.002;4.096;2023-07-31T22:41:51;18.40;99.90
30385;DHT22;17181;51.002;4.096;2023-07-31T22:44:16;18.40;99.90
30385;DHT22;17181;51.002;4.096;2023-07-31T22:46:42;18.40;99.90
30385;DHT22;17181;51.002;4.096;2023-07-31T22:49:08;18.30;99.90
30385;DHT22;17181;51.002;4.096;2023-07-31T22:51:34;18.30;99.90
30385;DHT22;17181;51.002;4.096;2023-07-31T22:54:00;18.30;99.90
30385;DHT22;17181;51.002;4.096;2023-07-31T22:56:26;18.30;99.90
30385;DHT22;17181;51.002;4.096;2023-07-31T22:58:51;18.30;99.90
30385;DHT22;17181;51.002;4.096;2023-07-31T23:01:17;18.20;99.90
30385;DHT22;17181;51.002;4.096;2023-07-31T23:03:45;18.20;99.90
30385;DHT22;17181;51.002;4.096;2023-07-31T23:06:11;18.20;99.90
30385;DHT22;17181;51.002;4.096;2023-07-31T23:08:37;18.20;99.90
30385;DHT22;17181;51.002;4.096;2023-07-31T23:11:03;18.20;99.90
30385;DHT22;17181;51.002;4.096;2023-07-31T23:13:29;18.10;99.90
30385;DHT22;17181;51.002;4.096;2023-07-31T23:15:55;18.20;99.90
30385;DHT22;17181;51.002;4.096;2023-07-31T23:18:21;18.10;99.90
30385;DHT22;17181;51.002;4.096;2023-07-31T23:20:51;18.10;99.90
30385;DHT22;17181;51.002;4.096;2023-07-31T23:23:18;18.10;99.90
30385;DHT22;17181;51.002;4.096;2023-07-31T23:25:46;18.00;99.90
30385;DHT22;17181;51.002;4.096;2023-07-31T23:28:13;17.90;99.90
30385;DHT22;17181;51.002;4.096;2023-07-31T23:30:39;17.80;99.90
30385;DHT22;17181;51.002;4.096;2023-07-31T23:33:05;17.70;99.90
30385;DHT22;17181;51.002;4.096;2023-07-31T23:35:31;17.60;99.90
30385;DHT22;17181;51.002;4.096;2023-07-31T23:37:57;17.60;99.90
30385;DHT22;17181;51.002;4.096;2023-07-31T23:40:25;17.50;99.90
30385;DHT22;17181;51.002;4.096;2023-07-31T23:42:51;17.50;99.90
30385;DHT22;17181;51.002;4.096;2023-07-31T23:45:17;17.50;99.90
30385;DHT22;17181;51.002;4.096;2023-07-31T23:47:43;17.40;99.90